createdAt,value
2017-11-16T00:00:03.052Z,65.15
2017-11-16T00:02:31.907Z,72.80
2017-11-16T00:04:59.996Z,83.53
2017-11-16T00:07:28.108Z,70.32
2017-11-16T00:09:56.182Z,86.78
2017-11-16T00:12:24.277Z,76.82
2017-11-16T00:14:52.376Z,103.55
2017-11-16T00:17:20.463Z,87.28
2017-11-16T00:19:49.389Z,67.03
2017-11-16T00:22:17.475Z,84.55
2017-11-16T00:24:45.584Z,91.53
2017-11-16T00:27:14.444Z,74.10
2017-11-16T00:29:42.540Z,80.97
2017-11-16T00:32:10.701Z,90.43
2017-11-16T00:34:38.878Z,71.43
2017-11-16T00:37:07.730Z,69.85
2017-11-16T00:39:35.809Z,71.68
2017-11-16T00:42:03.904Z,83.28
2017-11-16T00:44:32.927Z,77.25
2017-11-16T00:47:01.769Z,76.60
2017-11-16T00:49:29.853Z,69.40
2017-11-16T00:51:57.940Z,72.47
2017-11-16T00:54:26.791Z,69.07
2017-11-16T00:56:54.897Z,85.90
2017-11-16T00:59:22.968Z,83.12
2017-11-16T01:01:51.825Z,73.60
2017-11-16T01:04:19.896Z,62.95
2017-11-16T01:06:47.981Z,72.12
2017-11-16T01:09:16.121Z,77.37
2017-11-16T01:11:44.305Z,72.90
2017-11-16T01:14:12.413Z,88.90
2017-11-16T01:16:41.274Z,69.82
2017-11-16T01:19:09.457Z,78.37
2017-11-16T01:21:37.809Z,46.72
2017-11-16T01:24:06.286Z,41.88
2017-11-16T01:26:34.400Z,36.60
2017-11-16T01:29:03.260Z,44.55
2017-11-16T01:31:31.341Z,38.30
2017-11-16T01:33:59.467Z,36.03
2017-11-16T01:36:27.564Z,33.75
2017-11-16T01:38:55.743Z,50.50
2017-11-16T01:41:23.839Z,48.63
2017-11-16T01:43:51.913Z,31.20
2017-11-16T01:46:20.778Z,43.70
2017-11-16T01:48:48.860Z,41.03
2017-11-16T01:51:16.956Z,48.08
2017-11-16T01:53:45.808Z,41.67
2017-11-16T01:56:13.998Z,45.22
2017-11-16T01:58:42.853Z,47.72
2017-11-16T02:01:10.936Z,45.80
2017-11-16T02:03:39.107Z,43.22
2017-11-16T02:06:07.206Z,48.15
2017-11-16T02:08:35.308Z,42.50
2017-11-16T02:11:03.437Z,48.65
2017-11-16T02:13:31.538Z,40.97
2017-11-16T02:15:59.604Z,45.55
2017-11-16T02:18:27.725Z,54.00
2017-11-16T02:20:55.915Z,43.58
2017-11-16T02:23:25.520Z,47.67
2017-11-16T02:25:53.600Z,48.35
2017-11-16T02:28:21.767Z,46.10
2017-11-16T02:30:49.852Z,43.63
2017-11-16T02:33:17.949Z,69.07
2017-11-16T02:35:46.184Z,46.17
2017-11-16T02:38:14.285Z,50.58
2017-11-16T02:40:42.361Z,45.97
2017-11-16T02:43:10.473Z,52.25
2017-11-16T02:45:38.557Z,50.88
2017-11-16T02:48:06.649Z,62.25
2017-11-16T02:50:35.517Z,43.85
2017-11-16T02:53:03.668Z,51.88
2017-11-16T02:55:31.738Z,45.58
2017-11-16T02:58:00.044Z,47.25
2017-11-16T03:00:28.137Z,48.40
2017-11-16T03:02:56.982Z,48.08
2017-11-16T03:05:25.085Z,47.67
2017-11-16T03:07:53.939Z,58.90
2017-11-16T03:10:22.036Z,58.65
2017-11-16T03:12:50.116Z,53.10
2017-11-16T03:15:18.984Z,45.08
2017-11-16T03:17:47.055Z,39.45
2017-11-16T03:20:15.145Z,54.95
2017-11-16T03:22:43.987Z,50.17
2017-11-16T03:25:12.078Z,49.92
2017-11-16T03:27:40.163Z,58.22
2017-11-16T03:30:08.249Z,53.70
2017-11-16T03:32:37.093Z,53.20
2017-11-16T03:35:05.204Z,57.13
2017-11-16T03:37:34.050Z,62.67
2017-11-16T03:40:02.131Z,54.13
2017-11-16T03:42:30.415Z,52.53
2017-11-16T03:44:58.486Z,64.80
2017-11-16T03:47:26.583Z,58.10
2017-11-16T03:49:55.444Z,68.82
2017-11-16T03:52:23.528Z,54.50
2017-11-16T03:54:51.613Z,47.72
2017-11-16T03:57:20.473Z,52.70
2017-11-16T03:59:48.562Z,50.33
2017-11-16T04:02:16.645Z,55.42
2017-11-16T04:04:45.501Z,46.03
2017-11-16T04:07:13.589Z,44.50
2017-11-16T04:09:42.435Z,46.67
2017-11-16T04:12:10.523Z,43.38
2017-11-16T04:14:38.612Z,42.90
2017-11-16T04:17:06.748Z,41.47
2017-11-16T04:19:34.852Z,37.22
2017-11-16T04:22:03.027Z,38.47
2017-11-16T04:24:31.897Z,42.15
2017-11-16T04:26:59.994Z,41.97
2017-11-16T04:29:28.141Z,32.72
2017-11-16T04:31:56.224Z,39.20
2017-11-16T04:34:24.335Z,36.90
2017-11-16T04:36:53.170Z,38.25
2017-11-16T04:39:21.309Z,46.85
2017-11-16T04:41:49.391Z,39.78
2017-11-16T04:44:17.501Z,35.45
2017-11-16T04:46:45.564Z,38.42
2017-11-16T04:49:13.660Z,43.78
2017-11-16T04:51:42.513Z,35.30
2017-11-16T04:54:10.594Z,39.55
2017-11-16T04:56:38.697Z,42.65
2017-11-16T04:59:07.551Z,47.83
2017-11-16T05:01:35.640Z,37.40
2017-11-16T05:04:04.487Z,36.92
2017-11-16T05:06:32.581Z,36.45
2017-11-16T05:09:00.666Z,41.35
2017-11-16T05:11:29.516Z,39.28
2017-11-16T05:13:57.612Z,49.80
2017-11-16T05:16:25.719Z,46.10
2017-11-16T05:18:53.803Z,48.85
2017-11-16T05:21:21.900Z,46.65
2017-11-16T05:23:49.981Z,43.50
2017-11-16T05:26:18.069Z,48.67
2017-11-16T05:28:46.151Z,37.50
2017-11-16T05:31:15.001Z,41.58
2017-11-16T05:33:43.087Z,53.55
2017-11-16T05:36:11.168Z,44.08
2017-11-16T05:38:39.272Z,48.60
2017-11-16T05:41:07.348Z,45.25
2017-11-16T05:43:35.448Z,43.03
2017-11-16T05:46:03.735Z,40.88
2017-11-16T05:48:31.829Z,46.95
2017-11-16T05:50:59.916Z,39.33
2017-11-16T05:53:28.767Z,33.72
2017-11-16T05:55:56.856Z,45.33
2017-11-16T05:58:24.948Z,45.40
2017-11-16T06:00:53.793Z,35.78
2017-11-16T06:03:21.889Z,46.50
2017-11-16T06:05:50.737Z,41.55
2017-11-16T06:08:18.813Z,41.42
2017-11-16T06:10:46.988Z,46.63
2017-11-16T06:13:15.191Z,47.95
2017-11-16T06:15:43.281Z,46.00
2017-11-16T06:18:11.359Z,45.35
2017-11-16T06:20:39.455Z,32.00
2017-11-16T06:23:07.548Z,32.38
2017-11-16T06:25:35.646Z,38.47
2017-11-16T06:28:03.732Z,34.75
2017-11-16T06:30:31.829Z,39.35
2017-11-16T06:32:59.960Z,39.25
2017-11-16T06:35:28.828Z,34.70
2017-11-16T06:37:56.989Z,30.27
2017-11-16T06:40:25.093Z,33.35
2017-11-16T06:42:53.950Z,36.33
2017-11-16T06:45:22.041Z,26.17
2017-11-16T06:47:50.900Z,29.55
2017-11-16T06:50:18.992Z,26.33
2017-11-16T06:52:47.093Z,28.58
2017-11-16T06:55:15.187Z,26.48
2017-11-16T06:57:43.495Z,29.45
2017-11-16T07:00:11.593Z,31.65
2017-11-16T07:02:40.448Z,24.85
2017-11-16T07:05:08.552Z,26.42
2017-11-16T07:07:37.424Z,30.30
2017-11-16T07:10:05.521Z,26.92
2017-11-16T07:12:34.378Z,30.70
2017-11-16T07:15:02.493Z,25.27
2017-11-16T07:17:30.576Z,23.05
2017-11-16T07:19:58.668Z,29.58
2017-11-16T07:22:26.772Z,26.70
2017-11-16T07:24:54.861Z,29.33
2017-11-16T07:27:23.737Z,27.70
2017-11-16T07:29:51.828Z,24.70
2017-11-16T07:32:19.935Z,24.10
2017-11-16T07:34:48.019Z,23.73
2017-11-16T07:37:16.126Z,28.40
2017-11-16T07:39:44.978Z,29.30
2017-11-16T07:42:13.077Z,25.25
2017-11-16T07:44:41.169Z,28.48
2017-11-16T07:47:09.261Z,30.40
2017-11-16T07:49:37.344Z,27.03
2017-11-16T07:52:05.440Z,27.50
2017-11-16T07:54:33.551Z,27.33
2017-11-16T07:57:02.410Z,25.52
2017-11-16T07:59:30.494Z,28.70
2017-11-16T08:01:59.352Z,25.10
2017-11-16T08:04:27.441Z,29.67
2017-11-16T08:06:55.535Z,36.15
2017-11-16T08:09:23.633Z,29.15
2017-11-16T08:11:52.561Z,28.80
2017-11-16T08:14:20.651Z,27.13
2017-11-16T08:16:49.512Z,28.27
2017-11-16T08:19:17.592Z,29.80
2017-11-16T08:21:45.696Z,34.30
2017-11-16T08:24:13.778Z,32.50
2017-11-16T08:26:41.901Z,26.37
2017-11-16T08:29:09.985Z,27.73
2017-11-16T08:31:38.372Z,35.73
2017-11-16T08:34:06.441Z,27.50
2017-11-16T08:36:34.532Z,27.73
2017-11-16T08:39:03.390Z,28.30
2017-11-16T08:41:31.482Z,27.83
2017-11-16T08:44:00.340Z,26.47
2017-11-16T08:46:28.441Z,31.73
2017-11-16T08:48:57.280Z,30.20
2017-11-16T08:51:25.373Z,29.63
2017-11-16T08:53:53.461Z,33.33
2017-11-16T08:56:22.322Z,32.20
2017-11-16T08:58:50.418Z,25.48
2017-11-16T09:01:18.532Z,31.50
2017-11-16T09:03:47.360Z,28.43
2017-11-16T09:06:15.443Z,32.00
2017-11-16T09:08:43.712Z,31.23
2017-11-16T09:11:11.888Z,31.10
2017-11-16T09:13:40.263Z,31.20
2017-11-16T09:16:08.353Z,29.20
2017-11-16T09:18:37.209Z,33.73
2017-11-16T09:21:05.286Z,30.20
2017-11-16T09:23:33.377Z,29.50
2017-11-16T09:26:02.236Z,36.60
2017-11-16T09:28:30.345Z,37.67
2017-11-16T09:30:58.452Z,38.05
2017-11-16T09:33:26.664Z,38.13
2017-11-16T09:35:54.760Z,40.80
2017-11-16T09:38:22.875Z,33.43
2017-11-16T09:40:50.929Z,33.07
2017-11-16T09:43:19.037Z,34.77
2017-11-16T09:45:47.221Z,34.95
2017-11-16T09:48:15.505Z,43.60
2017-11-16T09:50:43.606Z,28.73
2017-11-16T09:53:11.745Z,34.00
2017-11-16T09:55:39.829Z,31.60
2017-11-16T09:58:08.712Z,39.37
2017-11-16T10:00:36.789Z,37.93
2017-11-16T10:03:05.648Z,38.37
2017-11-16T10:05:33.758Z,41.57
2017-11-16T10:08:01.992Z,30.13
2017-11-16T10:10:30.080Z,27.00
2017-11-16T10:12:58.184Z,36.33
2017-11-16T10:15:26.336Z,32.23
2017-11-16T10:17:54.772Z,31.27
2017-11-16T10:20:22.870Z,27.90
2017-11-16T10:22:50.961Z,26.80
2017-11-16T10:25:19.143Z,29.87
2017-11-16T11:11:27.712Z,30.40
2017-11-16T11:13:55.952Z,33.20
2017-11-16T11:16:24.103Z,27.10
2017-11-16T11:18:52.202Z,27.20
2017-11-16T11:21:20.304Z,29.27
2017-11-16T11:23:49.335Z,26.50
2017-11-16T11:26:17.393Z,31.40
2017-11-16T11:28:45.490Z,31.10
2017-11-16T11:31:13.600Z,27.57
2017-11-16T11:33:42.570Z,32.43
2017-11-16T11:36:10.721Z,31.83
2017-11-16T11:38:39.736Z,30.40
2017-11-16T11:41:07.823Z,31.70
2017-11-16T11:43:35.897Z,32.10
2017-11-16T11:46:04.001Z,28.70
2017-11-16T11:48:32.092Z,33.53
2017-11-16T11:51:00.287Z,28.27
2017-11-16T11:53:29.265Z,29.77
2017-11-16T11:55:57.356Z,30.00
2017-11-16T11:58:25.489Z,31.37
2017-11-16T12:00:53.585Z,26.33
2017-11-16T12:03:21.670Z,27.60
2017-11-16T12:05:49.756Z,26.70
2017-11-16T12:08:17.922Z,32.00
2017-11-16T12:10:46.797Z,30.87
2017-11-16T12:13:14.973Z,28.50
2017-11-16T12:15:43.844Z,32.03
2017-11-16T12:18:12.152Z,27.87
2017-11-16T12:20:40.993Z,35.93
2017-11-16T12:23:09.077Z,35.80
2017-11-16T12:25:37.171Z,27.37
2017-11-16T12:28:06.025Z,27.23
2017-11-16T12:30:34.096Z,29.63
2017-11-16T12:33:02.197Z,28.40
2017-11-16T12:35:30.462Z,29.20
2017-11-16T12:37:58.549Z,26.00
2017-11-16T12:40:27.393Z,23.30
2017-11-16T12:42:55.501Z,24.33
2017-11-16T12:45:24.354Z,24.90
2017-11-16T12:47:52.441Z,24.47
2017-11-16T12:50:20.529Z,28.07
2017-11-16T12:52:48.798Z,31.60
2017-11-16T12:55:17.067Z,29.10
2017-11-16T12:57:45.160Z,23.40
2017-11-16T13:00:13.422Z,25.07
2017-11-16T13:02:41.517Z,27.30
2017-11-16T13:05:09.762Z,29.40
2017-11-16T13:07:37.853Z,36.30
2017-11-16T13:10:06.709Z,25.50
2017-11-16T13:12:34.796Z,29.00
2017-11-16T13:15:02.883Z,24.87
2017-11-16T13:17:30.977Z,21.43
2017-11-16T13:19:59.832Z,29.00
2017-11-16T13:22:27.919Z,24.53
2017-11-16T13:24:56.006Z,27.90
2017-11-16T13:27:24.097Z,27.40
2017-11-16T13:29:52.180Z,26.93
2017-11-16T13:32:20.269Z,28.07
2017-11-16T13:34:48.349Z,29.40
2017-11-16T13:37:16.429Z,25.20
2017-11-16T13:39:44.523Z,24.97
2017-11-16T13:42:12.609Z,21.53
2017-11-16T13:44:41.476Z,22.60
2017-11-16T13:47:09.650Z,21.47
2017-11-16T13:49:37.762Z,23.10
2017-11-16T13:52:05.891Z,21.77
2017-11-16T13:54:33.973Z,21.90
2017-11-16T13:57:02.832Z,23.53
2017-11-16T13:59:30.919Z,23.33
2017-11-16T14:01:59.005Z,21.23
2017-11-16T14:04:27.860Z,22.23
2017-11-16T14:06:55.944Z,22.80
2017-11-16T14:09:24.061Z,21.23
2017-11-16T14:11:52.310Z,21.90
2017-11-16T14:14:20.588Z,26.00
2017-11-16T14:16:48.682Z,25.73
2017-11-16T14:19:17.531Z,22.70
2017-11-16T14:21:45.622Z,24.30
2017-11-16T14:24:14.476Z,25.63
2017-11-16T14:26:42.558Z,20.77
2017-11-16T14:29:10.643Z,23.03
2017-11-16T14:31:38.732Z,19.17
2017-11-16T14:34:07.590Z,25.67
2017-11-16T14:36:35.680Z,23.83
2017-11-16T14:39:03.770Z,23.47
2017-11-16T14:41:31.925Z,22.80
2017-11-16T14:44:00.769Z,22.13
2017-11-16T14:46:28.852Z,24.60
2017-11-16T14:48:56.938Z,23.17
2017-11-16T14:51:25.018Z,21.47
2017-11-16T14:53:53.125Z,21.50
2017-11-16T14:56:21.209Z,22.00
2017-11-16T14:58:49.305Z,20.03
2017-11-16T15:01:17.397Z,26.07
2017-11-16T15:03:45.488Z,26.23
2017-11-16T15:06:13.589Z,26.00
2017-11-16T15:08:41.677Z,26.70
2017-11-16T15:11:09.752Z,22.33
2017-11-16T15:13:37.849Z,24.80
2017-11-16T15:16:05.938Z,21.60
2017-11-16T15:18:34.773Z,27.60
2017-11-16T15:21:02.878Z,23.83
2017-11-16T15:23:30.960Z,24.57
2017-11-16T15:25:59.815Z,22.07
2017-11-16T15:28:27.906Z,23.60
2017-11-16T15:30:55.993Z,21.23
2017-11-16T15:33:24.832Z,22.70
2017-11-16T15:35:52.916Z,23.80
2017-11-16T15:38:21.002Z,25.50
2017-11-16T15:40:49.092Z,19.70
2017-11-16T15:43:17.933Z,23.73
2017-11-16T15:45:46.013Z,22.27
2017-11-16T15:48:14.105Z,23.67
2017-11-16T15:50:42.181Z,23.80
2017-11-16T15:53:11.059Z,24.37
2017-11-16T15:55:39.126Z,23.63
2017-11-16T15:58:07.216Z,22.80
2017-11-16T16:00:36.067Z,21.73
2017-11-16T16:03:04.149Z,20.27
2017-11-16T16:05:32.224Z,22.20
2017-11-16T16:08:00.328Z,21.10
2017-11-16T16:10:28.405Z,23.13
2017-11-16T16:12:56.488Z,24.27
2017-11-16T16:15:24.580Z,35.73
2017-11-16T16:17:52.653Z,39.70
2017-11-16T16:20:20.741Z,31.00
2017-11-16T16:22:48.838Z,36.40
2017-11-16T16:25:16.928Z,30.53
2017-11-16T16:27:45.002Z,26.10
2017-11-16T16:30:13.090Z,26.53
2017-11-16T16:32:41.173Z,24.37
2017-11-16T16:35:09.264Z,24.00
2017-11-16T16:37:37.351Z,27.50
2017-11-16T16:40:05.445Z,27.43
2017-11-16T16:42:33.618Z,22.07
2017-11-16T16:45:01.855Z,24.57
2017-11-16T16:47:29.941Z,25.90
2017-11-16T16:49:58.213Z,28.00
2017-11-16T16:52:26.297Z,24.80
2017-11-16T16:54:54.387Z,27.70
2017-11-16T16:57:22.622Z,27.70
2017-11-16T16:59:50.707Z,24.30
2017-11-16T17:02:18.833Z,24.23
2017-11-16T17:04:46.919Z,26.60
2017-11-16T17:07:22.145Z,25.70
2017-11-16T17:09:53.230Z,27.87
2017-11-16T17:12:22.076Z,43.03
2017-11-16T17:14:50.168Z,34.03
2017-11-16T17:17:18.245Z,30.60
2017-11-16T17:19:47.164Z,36.83
2017-11-16T17:22:15.309Z,41.60
2017-11-16T17:24:43.460Z,33.00
2017-11-16T17:27:11.545Z,39.60
2017-11-16T17:29:40.394Z,45.53
2017-11-16T17:32:08.481Z,44.97
2017-11-16T17:34:36.601Z,34.20
2017-11-16T17:37:04.705Z,36.78
2017-11-16T17:39:32.787Z,44.03
2017-11-16T17:42:00.976Z,40.70
2017-11-16T17:44:29.069Z,34.63
2017-11-16T17:46:58.284Z,35.10
2017-11-16T17:49:26.467Z,37.47
2017-11-16T17:51:54.855Z,37.53
2017-11-16T17:54:23.102Z,33.80
2017-11-16T17:56:51.262Z,34.20
2017-11-16T17:59:20.106Z,34.73
2017-11-16T18:01:48.201Z,34.67
2017-11-16T18:04:16.289Z,42.67
2017-11-16T18:06:45.168Z,34.70
2017-11-16T18:09:14.021Z,35.63
2017-11-16T18:11:42.104Z,45.03
2017-11-16T18:14:10.543Z,36.85
2017-11-16T18:16:39.480Z,33.15
2017-11-16T18:19:07.603Z,38.65
2017-11-16T18:21:36.027Z,41.40
2017-11-16T18:24:04.562Z,40.07
2017-11-16T18:26:33.161Z,43.30
2017-11-16T18:29:01.530Z,42.13
2017-11-16T18:31:29.615Z,36.67
2017-11-16T18:33:57.744Z,36.58
2017-11-16T18:36:25.959Z,39.88
2017-11-16T18:38:54.059Z,39.60
2017-11-16T18:41:22.164Z,33.80
2017-11-16T18:43:50.245Z,35.63
2017-11-16T18:46:18.344Z,32.57
2017-11-16T18:48:46.501Z,38.47
2017-11-16T18:51:14.609Z,38.20
2017-11-16T18:53:42.720Z,37.38
2017-11-16T18:56:10.836Z,33.20
2017-11-16T18:58:38.939Z,27.05
2017-11-16T19:01:07.001Z,33.35
2017-11-16T19:03:35.088Z,28.05
2017-11-16T19:06:03.208Z,26.17
2017-11-16T19:08:31.299Z,27.80
2017-11-16T19:10:59.385Z,30.77
2017-11-16T19:13:27.468Z,25.87
2017-11-16T19:15:56.336Z,24.90
2017-11-16T19:18:24.439Z,23.70
2017-11-16T19:20:52.531Z,23.60
2017-11-16T19:23:20.625Z,24.27
2017-11-16T19:25:48.701Z,22.67
2017-11-16T19:28:16.798Z,28.87
2017-11-16T19:30:45.658Z,24.90
2017-11-16T19:33:13.759Z,26.80
2017-11-16T19:35:42.612Z,23.23
2017-11-16T19:38:10.694Z,25.08
2017-11-16T19:40:38.853Z,26.98
2017-11-16T19:43:06.950Z,25.12
2017-11-16T19:45:35.036Z,22.00
2017-11-16T19:48:03.885Z,23.20
2017-11-16T19:50:32.066Z,22.17
2017-11-16T19:53:00.189Z,22.73
2017-11-16T19:55:28.332Z,20.12
2017-11-16T19:57:56.477Z,30.08
2017-11-16T20:00:24.559Z,34.40
2017-11-16T20:02:52.736Z,49.47
2017-11-16T20:05:20.830Z,30.27
2017-11-16T20:07:48.915Z,27.47
2017-11-16T20:10:17.151Z,47.47
2017-11-16T20:12:45.260Z,45.85
2017-11-16T20:15:13.358Z,41.58
2017-11-16T20:17:41.456Z,22.33
2017-11-16T20:20:09.644Z,23.80
2017-11-16T20:22:38.538Z,24.80
2017-11-16T20:25:06.684Z,26.12
2017-11-16T20:27:34.779Z,65.12
2017-11-16T20:30:03.633Z,50.30
2017-11-16T20:32:31.744Z,30.73
2017-11-16T20:35:00.605Z,54.20
2017-11-16T20:37:46.512Z,28.90
2017-11-16T20:40:19.171Z,36.37
2017-11-16T20:42:52.887Z,24.75
2017-11-16T20:48:23.508Z,23.87
2017-11-16T20:50:57.284Z,60.10
2017-11-16T20:53:42.204Z,70.33
2017-11-16T20:56:10.304Z,24.02
2017-11-16T20:58:38.400Z,32.60
2017-11-16T21:01:06.570Z,21.33
2017-11-16T21:03:34.661Z,21.10
2017-11-16T21:06:02.862Z,36.60
2017-11-16T21:08:31.241Z,24.02
2017-11-16T21:10:59.326Z,30.37
2017-11-16T21:13:28.182Z,23.67
2017-11-16T21:15:56.281Z,21.33
2017-11-16T21:18:25.133Z,23.62
2017-11-16T21:20:53.224Z,22.20
2017-11-16T21:23:21.318Z,28.02
2017-11-16T21:25:50.185Z,20.12
2017-11-16T21:28:18.265Z,32.67
2017-11-16T21:30:47.117Z,24.60
2017-11-16T21:33:15.210Z,24.87
2017-11-16T21:35:43.296Z,31.35
2017-11-16T21:38:12.152Z,26.35
2017-11-16T21:40:40.241Z,67.87
2017-11-16T21:43:08.324Z,26.65
2017-11-16T21:45:37.174Z,25.20
2017-11-16T21:48:05.265Z,29.58
2017-11-16T21:50:33.351Z,35.97
2017-11-16T21:53:01.514Z,32.13
2017-11-16T21:55:29.591Z,21.35
2017-11-16T21:57:58.529Z,33.13
2017-11-16T22:00:26.617Z,19.55
2017-11-16T22:02:54.730Z,18.95
2017-11-16T22:05:23.605Z,18.90
2017-11-16T22:07:51.684Z,32.08
2017-11-16T22:10:20.544Z,27.65
2017-11-16T22:12:48.661Z,19.95
2017-11-16T22:15:16.756Z,25.80
2017-11-16T22:17:44.849Z,22.87
2017-11-16T22:20:13.050Z,21.73
2017-11-16T22:22:41.136Z,20.12
2017-11-16T22:25:09.228Z,20.83
2017-11-16T22:27:37.470Z,24.67
2017-11-16T22:30:05.569Z,22.75
2017-11-16T22:32:33.676Z,20.73
2017-11-16T22:35:01.757Z,21.70
2017-11-16T22:37:29.853Z,19.62
2017-11-16T22:39:58.800Z,17.30
2017-11-16T22:42:26.879Z,18.70
2017-11-16T22:44:55.762Z,16.42
2017-11-16T22:47:23.851Z,19.33
2017-11-16T22:49:51.946Z,18.35
2017-11-16T22:52:20.048Z,19.05
2017-11-16T22:54:48.133Z,20.73
2017-11-16T22:57:16.218Z,18.50
2017-11-16T22:59:44.394Z,20.77
2017-11-16T23:02:13.273Z,21.23
2017-11-16T23:04:41.380Z,18.92
2017-11-16T23:07:09.455Z,19.77
2017-11-16T23:09:38.317Z,17.50
2017-11-16T23:12:06.419Z,18.35
2017-11-16T23:14:34.487Z,22.65
2017-11-16T23:17:03.342Z,21.02
2017-11-16T23:19:31.432Z,22.70
2017-11-16T23:21:59.536Z,21.90
2017-11-16T23:24:27.776Z,20.30
2017-11-16T23:26:56.684Z,18.48
2017-11-16T23:29:24.777Z,21.10
2017-11-16T23:31:52.889Z,20.08
2017-11-16T23:34:20.980Z,22.92
2017-11-16T23:36:49.061Z,22.58
2017-11-16T23:39:18.246Z,23.70
2017-11-16T23:41:46.327Z,25.70
2017-11-16T23:44:14.416Z,24.67
2017-11-16T23:46:42.510Z,26.58
2017-11-16T23:49:10.623Z,24.20
2017-11-16T23:51:38.716Z,24.25
2017-11-16T23:54:07.563Z,21.42
2017-11-16T23:56:35.771Z,22.90
2017-11-16T23:59:03.840Z,24.92
